COK weather

Cochin International Airport
Kochi, Kerala, India

Public forecast

Using degrees Celsius for public forecast. Weather courtesy of forecast.io.

METAR (pilot weather report)

Retrieved 2019/04/25 09:30 UTC (0 seconds ago):

VOCI 250930Z 27009KT 5000 HZ SCT020 SCT100 33/25 Q1007 NOSIG

TAF (pilot weather forecast)

Retrieved 2019/04/25 06:36 UTC (3 hours ago):

TAF TAF VOCI 250500Z 2506/2612 25005KT 5000 HZ SCT012 SCT090 TEMPO 2510/2514 3000 TSRA RA SCT015 FEW025CB BKN080 BECMG 2516/2518 VRB02KT 4000 HZ SCT015 BKN080 TEMPO 2522/2602 2500 BR BECMG 2605/2607 29010KT 5000 HZ TEMPO 2610/2612 3000 TSRA RA SCT015 FEW025CB BKN080